^^
Meteo Knjazevac Station Historical Data
 
Daily Summary for July 12, 2020 Units:  Metric    English   Both
Daily Weekly Monthly Yearly Custom
  Current: High: Low: Average:
Temperature: 21.7 °C 22.2 °C 15 °C 18.2 °C
Dew Point: 16.7 °C 16.9 °C 13.6 °C 15 °C
Humidity: 73% 94% 70% 82%
Wind Speed: 12.9km/h 19.3km/h 0km/h 5.6km/h
Wind Gust: 32.2km/h 35.4km/h - -
WindWest - - WSW
Pressure: 1018.5 hPa 1018.5 hPa 1014.1 hPa -
Precipitation: 0 mm      
Historical Graphs
 
 
Tabular Data for July 12, 2020
Time Temperature Dew Point Pressure Wind Wind Speed Wind Gust Humidity Rainfall Rate (Hourly) solar Conditions
00:00 19.1 °C 15.4 °C 1014.1 hPa Calm   1.6 km/h 79% 0 mm 0 W/m2
00:10 19 °C 15.3 °C 1014.1 hPa Calm   3.2 km/h 79% 0 mm 0 W/m2
00:20 18.9 °C 15.2 °C 1014.1 hPa Calm   4.8 km/h 79% 0 mm 0 W/m2
00:30 18.8 °C 15.1 °C 1014.1 hPa Calm   3.2 km/h 79% 0 mm 0 W/m2
00:40 18.6 °C 15.3 °C 1014.1 hPa WSW 1.6 km/h 3.2 km/h 81% 0 mm 0 W/m2
00:50 18.4 °C 15.1 °C 1014.1 hPa Calm   1.6 km/h 81% 0 mm 0 W/m2
01:00 18.4 °C 15.1 °C 1014.1 hPa North 1.6 km/h 4.8 km/h 81% 0 mm 0 W/m2
01:10 18.1 °C 14.8 °C 1014.1 hPa Calm   3.2 km/h 81% 0 mm 0 W/m2
01:20 17.8 °C 14.9 °C 1014.1 hPa Calm   3.2 km/h 83% 0 mm 0 W/m2
01:30 17.6 °C 14.7 °C 1014.4 hPa WNW 1.6 km/h 4.8 km/h 83% 0 mm 0 W/m2
01:40 17.5 °C 14.8 °C 1014.4 hPa NW 1.6 km/h 8 km/h 84% 0 mm 0 W/m2
01:50 17.6 °C 14.9 °C 1014.1 hPa ENE 1.6 km/h 6.4 km/h 84% 0 mm 0 W/m2
02:00 17.3 °C 14.6 °C 1014.4 hPa WSW 3.2 km/h 6.4 km/h 84% 0 mm 0 W/m2
02:10 17.1 °C 14.6 °C 1014.4 hPa North 1.6 km/h 3.2 km/h 85% 0 mm 0 W/m2
02:20 16.9 °C 14.3 °C 1014.4 hPa Calm   3.2 km/h 85% 0 mm 0 W/m2
02:30 16.9 °C 14.6 °C 1014.4 hPa Calm   3.2 km/h 86% 0 mm 0 W/m2
02:40 16.8 °C 14.4 °C 1014.4 hPa Calm   3.2 km/h 86% 0 mm 0 W/m2
02:50 16.6 °C 14.2 °C 1014.4 hPa Calm   4.8 km/h 86% 0 mm 0 W/m2
03:00 16.5 °C 14.5 °C 1014.4 hPa Calm   4.8 km/h 88% 0 mm 0 W/m2
03:10 16.4 °C 14.4 °C 1014.4 hPa West 1.6 km/h 4.8 km/h 88% 0 mm 0 W/m2
03:20 16.3 °C 14.3 °C 1014.4 hPa NW 1.6 km/h 4.8 km/h 88% 0 mm 0 W/m2
03:30 16.2 °C 14.4 °C 1014.4 hPa Calm   3.2 km/h 89% 0 mm 0 W/m2
03:40 16.1 °C 14.3 °C 1014.4 hPa Calm   1.6 km/h 89% 0 mm 0 W/m2
03:50 16.1 °C 14.3 °C 1014.1 hPa Calm   3.2 km/h 89% 0 mm 0 W/m2
04:00 16.1 °C 14.4 °C 1014.1 hPa NNW 1.6 km/h 3.2 km/h 90% 0 mm 0 W/m2
04:10 15.9 °C 14.3 °C 1014.4 hPa West 1.6 km/h 4.8 km/h 90% 0 mm 0 W/m2
04:20 15.8 °C 14.2 °C 1014.4 hPa West 1.6 km/h 4.8 km/h 90% 0 mm 0 W/m2
04:30 15.6 °C 13.9 °C 1014.8 hPa WSW 4.8 km/h 8 km/h 90% 0 mm 0 W/m2
04:40 15.3 °C 13.7 °C 1015.1 hPa WSW 3.2 km/h 8 km/h 90% 0 mm 0 W/m2
04:50 15.1 °C 13.7 °C 1015.1 hPa West 1.6 km/h 11.3 km/h 91% 0 mm 0 W/m2
05:00 15 °C 13.6 °C 1015.5 hPa WSW 3.2 km/h 6.4 km/h 91% 0 mm 0 W/m2
05:10 15 °C 13.6 °C 1015.5 hPa SSW 1.6 km/h 6.4 km/h 91% 0 mm 8 W/m2
05:20 15.1 °C 14 °C 1015.8 hPa Calm   4.8 km/h 93% 0 mm 15 W/m2
05:30 15.1 °C 14 °C 1016.1 hPa Calm   3.2 km/h 93% 0 mm 22 W/m2
05:40 15.2 °C 14.2 °C 1016.1 hPa South 3.2 km/h 9.7 km/h 94% 0 mm 30 W/m2
05:50 15.3 °C 14.2 °C 1016.1 hPa Calm   9.7 km/h 93% 0 mm 41 W/m2
06:00 15.6 °C 14.1 °C 1016.5 hPa SSW 1.6 km/h 8 km/h 91% 0 mm 66 W/m2
06:10 15.9 °C 14.3 °C 1016.5 hPa WSW 3.2 km/h 9.7 km/h 90% 0 mm 94 W/m2
06:20 16.1 °C 14.3 °C 1016.5 hPa West 1.6 km/h 11.3 km/h 89% 0 mm 121 W/m2
06:30 16.3 °C 13.9 °C 1016.8 hPa West 1.6 km/h 8 km/h 86% 0 mm 147 W/m2
06:40 16.5 °C 14.2 °C 1016.8 hPa SW 1.6 km/h 3.2 km/h 86% 0 mm 174 W/m2
06:50 16.8 °C 14.3 °C 1017.2 hPa SW 4.8 km/h 12.9 km/h 85% 0 mm 205 W/m2
07:00 17.2 °C 14.5 °C 1017.2 hPa West 4.8 km/h 12.9 km/h 84% 0 mm 232 W/m2
07:10 17.6 °C 14.7 °C 1017.2 hPa WSW 3.2 km/h 9.7 km/h 83% 0 mm 260 W/m2
07:20 17.8 °C 14.5 °C 1017.5 hPa West 8 km/h 11.3 km/h 81% 0 mm 290 W/m2
07:30 18.2 °C 14.7 °C 1017.5 hPa West 4.8 km/h 19.3 km/h 80% 0 mm 329 W/m2
07:40 18.4 °C 14.7 °C 1017.5 hPa West 12.9 km/h 22.5 km/h 79% 0 mm 363 W/m2
07:50 18.7 °C 15 °C 1017.8 hPa West 9.7 km/h 24.1 km/h 79% 0 mm 391 W/m2
08:00 18.9 °C 15.2 °C 1017.8 hPa West 8 km/h 25.7 km/h 79% 0 mm 422 W/m2
08:10 19.1 °C 15.2 °C 1017.8 hPa West 14.5 km/h 29 km/h 78% 0 mm 465 W/m2
08:20 19.3 °C 15.2 °C 1017.8 hPa West 12.9 km/h 24.1 km/h 77% 0 mm 498 W/m2
08:30 19.5 °C 15.3 °C 1017.8 hPa West 11.3 km/h 30.6 km/h 77% 0 mm 538 W/m2
08:40 19.6 °C 15.4 °C 1017.8 hPa West 11.3 km/h 22.5 km/h 77% 0 mm 577 W/m2
08:50 19.8 °C 15.3 °C 1017.8 hPa West 12.9 km/h 25.7 km/h 75% 0 mm 607 W/m2
09:00 20.3 °C 15.7 °C 1017.8 hPa West 9.7 km/h 25.7 km/h 75% 0 mm 621 W/m2
09:10 20.9 °C 15.9 °C 1017.8 hPa WSW 11.3 km/h 24.1 km/h 73% 0 mm 675 W/m2
09:20 21.3 °C 16.3 °C 1017.8 hPa West 8 km/h 20.9 km/h 73% 0 mm 701 W/m2
09:30 21.7 °C 16.4 °C 1017.8 hPa West 11.3 km/h 22.5 km/h 72% 0 mm 726 W/m2
09:40 21.9 °C 16.2 °C 1017.8 hPa West 11.3 km/h 22.5 km/h 70% 0 mm 750 W/m2
09:50 22.2 °C 16.4 °C 1017.8 hPa West 11.3 km/h 22.5 km/h 70% 0 mm 773 W/m2
10:00 22.1 °C 16.8 °C 1017.8 hPa West 11.3 km/h 24.1 km/h 72% 0 mm 795 W/m2
10:10 21.9 °C 16.4 °C 1017.8 hPa West 14.5 km/h 25.7 km/h 71% 0 mm 735 W/m2
10:20 21.9 °C 16.6 °C 1017.8 hPa West 16.1 km/h 30.6 km/h 72% 0 mm 835 W/m2
10:30 21.7 °C 16.4 °C 1017.8 hPa West 19.3 km/h 35.4 km/h 72% 0 mm 853 W/m2
10:40 21.7 °C 16.7 °C 1017.8 hPa WNW 16.1 km/h 33.8 km/h 73% 0 mm 871 W/m2
10:50 21.9 °C 16.8 °C 1017.8 hPa West 11.3 km/h 30.6 km/h 73% 0 mm 477 W/m2
11:00 21.9 °C 16.6 °C 1018.2 hPa West 19.3 km/h 35.4 km/h 72% 0 mm 901 W/m2
11:10 21.9 °C 16.6 °C 1018.2 hPa West 19.3 km/h 35.4 km/h 72% 0 mm 914 W/m2
11:20 22 °C 16.9 °C 1018.2 hPa WSW 12.9 km/h 27.4 km/h 73% 0 mm 706 W/m2
11:30 21.9 °C 16.6 °C 1018.2 hPa West 16.1 km/h 32.2 km/h 72% 0 mm 706 W/m2
11:40 21.7 °C 16.7 °C 1018.5 hPa West 12.9 km/h 32.2 km/h 73% 0 mm 485 W/m2
Knjazevac, Serbia
Compliments of Weather Underground - 2 mb